WZZ3558 LROP-LBSF
Flight info
| Callsign | WZZ3558 |
|---|---|
| Flight time | N/A |
| Altitude | 26000 |
| Route | POLUN DCT TIMUR N181 GOL |
| Aircraft | A20N/M-SDE2E3FGHIRWXY/LB1 |
Departure
| Time | 2026-05-01 07:57 |
|---|---|
| Airport | Bucharest Henri Coandă International Airport (LROP) |
Arrival
| Time | N/A |
|---|---|
| Airport | Sofia Airport (LBSF) |
| Time | Latitude | Longitude | Altitude | Speed | Heading |
|---|---|---|---|---|---|
| 2026-05-01 07:34 | 44.57087 | 26.08246 | 320 ft | 0 kts | 263° |
| 2026-05-01 07:49 | 44.57086 | 26.08243 | 318 ft | 0 kts | 263° |
| 2026-05-01 07:49 | 44.57086 | 26.08234 | 319 ft | 8 kts | 263° |
| 2026-05-01 07:50 | 44.57085 | 26.08233 | 319 ft | 1 kts | 263° |
| 2026-05-01 07:50 | 44.57087 | 26.08247 | 320 ft | 1 kts | 263° |
| 2026-05-01 07:50 | 44.57087 | 26.08254 | 320 ft | 1 kts | 263° |
| 2026-05-01 07:51 | 44.57088 | 26.08261 | 320 ft | 1 kts | 263° |
| 2026-05-01 07:51 | 44.57088 | 26.08268 | 317 ft | 1 kts | 263° |
| 2026-05-01 07:51 | 44.57088 | 26.08279 | 317 ft | 1 kts | 294° |
| 2026-05-01 07:52 | 44.57077 | 26.08293 | 317 ft | 1 kts | 359° |
| 2026-05-01 07:52 | 44.57131 | 26.08313 | 320 ft | 11 kts | 27° |
| 2026-05-01 07:52 | 44.57184 | 26.08355 | 321 ft | 10 kts | 9° |
| 2026-05-01 07:53 | 44.57208 | 26.08299 | 321 ft | 2 kts | 178° |
| 2026-05-01 07:53 | 44.57199 | 26.08315 | 321 ft | 2 kts | 108° |
| 2026-05-01 07:53 | 44.57208 | 26.08352 | 321 ft | 4 kts | 65° |
| 2026-05-01 07:53 | 44.57218 | 26.08383 | 322 ft | 5 kts | 68° |
| 2026-05-01 07:54 | 44.57314 | 26.08490 | 322 ft | 11 kts | 354° |
| 2026-05-01 07:55 | 44.57483 | 26.08468 | 322 ft | 10 kts | 355° |
| 2026-05-01 07:55 | 44.57569 | 26.08454 | 323 ft | 11 kts | 354° |
| 2026-05-01 07:56 | 44.57683 | 26.08717 | 321 ft | 58 kts | 84° |
| 2026-05-01 07:56 | 44.57898 | 26.11512 | 631 ft | 196 kts | 84° |
| 2026-05-01 07:57 | 44.58043 | 26.13473 | 1443 ft | 208 kts | 84° |
| 2026-05-01 07:57 | 44.58463 | 26.17820 | 3158 ft | 242 kts | 77° |
| 2026-05-01 07:58 | 44.60221 | 26.22112 | 4991 ft | 276 kts | 41° |
| 2026-05-01 07:58 | 44.63925 | 26.23999 | 7073 ft | 303 kts | 355° |
| 2026-05-01 07:59 | 44.67588 | 26.21282 | 9032 ft | 317 kts | 309° |
| 2026-05-01 07:59 | 44.68936 | 26.15359 | 9641 ft | 328 kts | 266° |
| 2026-05-01 08:00 | 44.65466 | 26.03453 | 12416 ft | 342 kts | 234° |
| 2026-05-01 08:01 | 44.61091 | 25.95275 | 15583 ft | 357 kts | 233° |
| 2026-05-01 08:01 | 44.59584 | 25.92471 | 16544 ft | 363 kts | 233° |
| 2026-05-01 08:01 | 44.58064 | 25.89616 | 17465 ft | 368 kts | 233° |
| 2026-05-01 08:02 | 44.54980 | 25.83758 | 19179 ft | 378 kts | 234° |
| 2026-05-01 08:02 | 44.53412 | 25.80765 | 19987 ft | 383 kts | 234° |
| 2026-05-01 08:03 | 44.50219 | 25.74674 | 21540 ft | 393 kts | 234° |
| 2026-05-01 08:03 | 44.48612 | 25.71615 | 22267 ft | 397 kts | 234° |
| 2026-05-01 08:03 | 44.45295 | 25.65313 | 23633 ft | 406 kts | 233° |
| 2026-05-01 08:04 | 44.41906 | 25.58895 | 24875 ft | 414 kts | 233° |
| 2026-05-01 08:04 | 44.38445 | 25.52354 | 26003 ft | 422 kts | 233° |
| 2026-05-01 08:05 | 44.34931 | 25.45727 | 26630 ft | 425 kts | 233° |
| 2026-05-01 08:05 | 44.33167 | 25.42406 | 26648 ft | 426 kts | 233° |
| 2026-05-01 08:05 | 44.31394 | 25.39074 | 26648 ft | 427 kts | 233° |
| 2026-05-01 08:06 | 44.27840 | 25.32402 | 26648 ft | 428 kts | 233° |
| 2026-05-01 08:06 | 44.24307 | 25.25786 | 26646 ft | 428 kts | 233° |
| 2026-05-01 08:07 | 44.20745 | 25.19130 | 26730 ft | 428 kts | 233° |
| 2026-05-01 08:07 | 44.17173 | 25.12472 | 27000 ft | 429 kts | 233° |
| 2026-05-01 08:08 | 44.15385 | 25.09143 | 27000 ft | 430 kts | 233° |
| 2026-05-01 08:08 | 44.11796 | 25.02475 | 27001 ft | 430 kts | 233° |
| 2026-05-01 08:09 | 44.08194 | 24.95798 | 27000 ft | 430 kts | 233° |
| 2026-05-01 08:09 | 44.06396 | 24.92472 | 27001 ft | 430 kts | 233° |
| 2026-05-01 08:09 | 44.04619 | 24.89186 | 27000 ft | 430 kts | 233° |
| 2026-05-01 08:10 | 44.01010 | 24.82527 | 26999 ft | 430 kts | 233° |
| 2026-05-01 08:10 | 43.97400 | 24.75881 | 26999 ft | 430 kts | 233° |
| 2026-05-01 08:11 | 43.93793 | 24.69257 | 27000 ft | 430 kts | 233° |
| 2026-05-01 08:11 | 43.90177 | 24.62631 | 27000 ft | 430 kts | 233° |
| 2026-05-01 08:12 | 43.86564 | 24.56024 | 26999 ft | 430 kts | 233° |
| 2026-05-01 08:12 | 43.84755 | 24.52722 | 27001 ft | 430 kts | 233° |
| 2026-05-01 08:12 | 43.81157 | 24.46166 | 27000 ft | 430 kts | 233° |
| 2026-05-01 08:13 | 43.79346 | 24.42871 | 27000 ft | 430 kts | 233° |
| 2026-05-01 08:13 | 43.77536 | 24.39583 | 26999 ft | 430 kts | 233° |
| 2026-05-01 08:13 | 43.73909 | 24.33002 | 27001 ft | 430 kts | 233° |
| 2026-05-01 08:14 | 43.72062 | 24.29758 | 26998 ft | 430 kts | 228° |